Terminal Aerodrome Forecast
Issued by NWS

Home | Current Version | Previous Version | Text Only | Print | Product List | Glossary Off
Versions: 1 2 3 4 5 6 7 8 9 10 11 12 13 14 15 16 17 18

000
FTUS43 KGRB 212300
TAFATW
TAF
KATW 212337Z 2200/2224 18009KT P6SM SCT050
     FM220100 17006KT P6SM SKC
     FM220900 17005KT P6SM SCT100 BKN250 WS015/21030KT
     FM221500 19015G22KT P6SM SCT250 PROB30 2220/2224 3SM TSRA
      OVC035CB=

USA.gov is the U.S. government's official web portal to all federal, state and local government web resources and services.